createdAt,value
2022-09-15T00:00:30.007Z,12.94
2022-09-15T00:03:35.517Z,12.94
2022-09-15T00:06:23.601Z,12.88
2022-09-15T00:09:11.712Z,12.94
2022-09-15T00:12:00.106Z,12.81
2022-09-15T00:14:47.942Z,12.69
2022-09-15T00:17:35.886Z,12.63
2022-09-15T00:20:23.863Z,12.56
2022-09-15T00:23:14.884Z,12.50
2022-09-15T00:26:08.187Z,12.50
2022-09-15T00:28:58.677Z,12.50
2022-09-15T00:31:46.631Z,12.44
2022-09-15T00:34:34.906Z,12.44
2022-09-15T00:37:22.940Z,12.44
2022-09-15T00:40:11.191Z,12.38
2022-09-15T00:42:58.879Z,12.25
2022-09-15T00:45:47.225Z,12.06
2022-09-15T00:48:37.763Z,11.94
2022-09-15T00:51:41.400Z,11.81
2022-09-15T00:54:41.456Z,11.88
2022-09-15T00:57:32.476Z,11.88
2022-09-15T01:00:24.179Z,11.81
2022-09-15T01:03:12.015Z,11.75
2022-09-15T01:06:41.247Z,11.69
2022-09-15T01:09:48.032Z,11.63
2022-09-15T01:12:36.037Z,11.69
2022-09-15T01:15:32.831Z,11.75
2022-09-15T01:18:29.506Z,11.75
2022-09-15T01:21:35.827Z,11.81
2022-09-15T01:24:41.729Z,11.88
2022-09-15T01:28:33.132Z,11.94
2022-09-15T01:32:22.649Z,11.94
2022-09-15T01:35:22.666Z,11.94
2022-09-15T01:38:26.783Z,11.81
2022-09-15T01:42:10.238Z,11.69
2022-09-15T01:45:07.676Z,11.50
2022-09-15T01:47:59.888Z,11.38
2022-09-15T01:50:54.225Z,11.31
2022-09-15T01:53:42.169Z,11.19
2022-09-15T01:56:30.085Z,11.13
2022-09-15T01:59:18.115Z,11.06
2022-09-15T02:02:20.791Z,11.06
2022-09-15T02:05:20.915Z,11.06
2022-09-15T02:08:28.700Z,11.06
2022-09-15T02:11:19.837Z,11.00
2022-09-15T02:14:22.309Z,10.88
2022-09-15T02:17:17.326Z,10.75
2022-09-15T02:20:20.729Z,10.69
2022-09-15T02:23:18.983Z,10.56
2022-09-15T02:26:16.971Z,10.56
2022-09-15T02:29:10.248Z,10.50
2022-09-15T02:32:06.779Z,10.44
2022-09-15T02:34:57.303Z,10.38
2022-09-15T02:37:46.873Z,10.31
2022-09-15T02:40:36.335Z,10.31
2022-09-15T02:43:24.563Z,10.25
2022-09-15T02:46:14.311Z,10.25
2022-09-15T02:49:03.521Z,10.19
2022-09-15T02:51:51.178Z,10.19
2022-09-15T02:54:39.203Z,10.19
2022-09-15T02:57:27.098Z,10.25
2022-09-15T03:00:16.990Z,10.25
2022-09-15T03:03:04.915Z,10.25
2022-09-15T03:05:52.833Z,10.25
2022-09-15T03:08:41.445Z,10.19
2022-09-15T03:11:31.424Z,10.19
2022-09-15T03:14:19.583Z,10.13
2022-09-15T03:17:07.423Z,10.19
2022-09-15T03:19:55.536Z,10.13
2022-09-15T03:22:47.787Z,10.13
2022-09-15T03:25:36.333Z,10.13
2022-09-15T03:28:24.379Z,10.13
2022-09-15T03:31:12.461Z,10.25
2022-09-15T03:34:00.316Z,10.31
2022-09-15T03:36:48.160Z,10.44
2022-09-15T03:39:36.036Z,10.50
2022-09-15T03:42:24.024Z,10.63
2022-09-15T03:45:11.889Z,10.75
2022-09-15T03:47:59.844Z,10.81
2022-09-15T03:50:48.111Z,10.81
2022-09-15T03:53:39.340Z,10.81
2022-09-15T03:56:33.467Z,10.75
2022-09-15T03:59:21.724Z,10.81
2022-09-15T04:02:09.781Z,10.81
2022-09-15T04:04:57.732Z,10.69
2022-09-15T04:07:45.625Z,10.69
2022-09-15T04:10:33.931Z,10.81
2022-09-15T04:13:27.922Z,11.00
2022-09-15T04:16:19.749Z,11.19
2022-09-15T04:19:07.715Z,11.31
2022-09-15T04:21:55.335Z,11.44
2022-09-15T04:24:44.304Z,11.50
2022-09-15T04:27:34.626Z,11.56
2022-09-15T04:30:22.352Z,11.56
2022-09-15T04:33:10.270Z,11.56
2022-09-15T04:36:04.426Z,11.50
2022-09-15T04:38:52.723Z,11.50
2022-09-15T04:41:40.707Z,11.56
2022-09-15T04:44:29.317Z,11.56
2022-09-15T04:47:17.750Z,11.56
2022-09-15T04:50:06.434Z,11.69
2022-09-15T04:52:53.926Z,12.00
2022-09-15T04:55:42.646Z,12.25
2022-09-15T04:58:30.787Z,12.50
2022-09-15T05:01:31.247Z,12.69
2022-09-15T05:04:19.228Z,12.88
2022-09-15T05:07:07.425Z,12.88
2022-09-15T05:09:55.640Z,12.81
2022-09-15T05:12:43.518Z,12.75
2022-09-15T05:15:33.724Z,12.75
2022-09-15T05:18:21.740Z,12.88
2022-09-15T05:21:13.519Z,12.88
2022-09-15T05:24:01.824Z,13.13
2022-09-15T05:26:50.113Z,13.38
2022-09-15T05:29:37.803Z,13.69
2022-09-15T05:32:26.440Z,14.00
2022-09-15T05:35:14.238Z,14.13
2022-09-15T05:38:02.208Z,14.25
2022-09-15T05:40:50.771Z,14.00
2022-09-15T05:43:40.157Z,14.00
2022-09-15T05:46:29.535Z,14.00
2022-09-15T05:49:17.491Z,13.94
2022-09-15T05:52:05.477Z,14.06
2022-09-15T05:54:58.327Z,14.19
2022-09-15T05:57:47.272Z,14.31
2022-09-15T06:00:35.496Z,14.63
2022-09-15T06:03:28.686Z,14.75
2022-09-15T06:06:18.241Z,14.81
2022-09-15T06:09:06.788Z,14.94
2022-09-15T06:11:54.296Z,15.38
2022-09-15T06:14:43.578Z,15.44
2022-09-15T06:17:34.288Z,15.31
2022-09-15T06:20:27.021Z,15.31
2022-09-15T06:23:15.042Z,15.31
2022-09-15T06:26:16.844Z,15.31
2022-09-15T06:29:05.970Z,15.31
2022-09-15T06:32:03.254Z,15.56
2022-09-15T06:34:51.220Z,16.00
2022-09-15T06:37:41.975Z,16.38
2022-09-15T06:40:30.857Z,16.69
2022-09-15T06:43:18.810Z,16.94
2022-09-15T06:46:29.113Z,17.38
2022-09-15T06:49:18.112Z,17.69
2022-09-15T06:52:14.672Z,18.94
2022-09-15T06:55:21.601Z,24.00
2022-09-15T06:58:09.376Z,26.19
2022-09-15T07:01:04.279Z,28.13
2022-09-15T07:03:52.918Z,28.38
2022-09-15T07:06:40.837Z,28.69
2022-09-15T07:09:28.887Z,28.88
2022-09-15T07:12:16.680Z,29.56
2022-09-15T07:15:05.498Z,28.88
2022-09-15T07:17:53.911Z,27.94
2022-09-15T07:20:42.102Z,28.00
2022-09-15T07:23:30.214Z,28.50
2022-09-15T07:26:27.516Z,29.06
2022-09-15T07:29:15.171Z,29.69
2022-09-15T07:32:03.533Z,29.19
2022-09-15T07:34:54.499Z,28.81
2022-09-15T07:37:44.869Z,28.00
2022-09-15T07:40:32.659Z,27.25
2022-09-15T07:43:21.986Z,27.63
2022-09-15T07:46:11.173Z,28.94
2022-09-15T07:49:03.348Z,29.69
2022-09-15T07:51:52.760Z,29.63
2022-09-15T07:54:40.491Z,29.50
2022-09-15T07:57:28.426Z,30.56
2022-09-15T08:00:17.689Z,31.31
2022-09-15T08:03:05.580Z,32.88
2022-09-15T08:06:01.891Z,32.94
2022-09-15T08:08:53.988Z,29.06
2022-09-15T08:11:54.963Z,25.94
2022-09-15T08:14:45.048Z,23.94
2022-09-15T08:17:35.610Z,21.75
2022-09-15T08:20:29.075Z,20.69
2022-09-15T08:23:20.986Z,20.56
2022-09-15T08:26:14.557Z,20.50
2022-09-15T08:29:16.578Z,20.13
2022-09-15T08:32:08.267Z,19.06
2022-09-15T08:35:00.099Z,19.56
2022-09-15T08:37:47.919Z,20.06
2022-09-15T08:40:38.067Z,20.38
2022-09-15T08:43:30.323Z,19.75
2022-09-15T08:46:32.170Z,19.25
2022-09-15T08:49:47.814Z,18.63
2022-09-15T08:53:02.192Z,18.69
2022-09-15T08:55:54.419Z,18.88
2022-09-15T08:58:42.332Z,17.56
2022-09-15T09:02:07.131Z,17.88
2022-09-15T09:05:13.967Z,19.13
2022-09-15T09:08:07.979Z,20.75
2022-09-15T09:11:19.597Z,22.94
2022-09-15T09:14:31.885Z,23.25
2022-09-15T09:17:35.535Z,22.13
2022-09-15T09:21:13.294Z,21.75
2022-09-15T09:24:27.778Z,22.94
2022-09-15T09:27:20.697Z,24.25
2022-09-15T09:30:21.347Z,25.19
2022-09-15T09:33:31.023Z,25.50
2022-09-15T09:36:19.890Z,27.81
2022-09-15T09:39:15.412Z,31.00
2022-09-15T09:42:05.969Z,33.13
2022-09-15T09:44:54.738Z,37.00
2022-09-15T09:47:43.376Z,30.81
2022-09-15T09:50:43.250Z,26.19
2022-09-15T09:53:33.925Z,22.50
2022-09-15T09:56:27.454Z,21.69
2022-09-15T09:59:32.055Z,22.19
2022-09-15T10:02:26.038Z,22.19
2022-09-15T10:05:20.804Z,22.13
2022-09-15T10:08:20.593Z,23.13
2022-09-15T10:11:10.740Z,21.94
2022-09-15T10:13:59.027Z,20.56
2022-09-15T10:17:11.032Z,20.63
2022-09-15T10:19:59.500Z,21.75
2022-09-15T10:22:47.454Z,22.06
2022-09-15T10:25:58.686Z,24.56
2022-09-15T10:29:14.277Z,27.06
2022-09-15T10:32:24.972Z,24.75
2022-09-15T10:35:19.543Z,29.19
2022-09-15T10:38:14.210Z,26.44
2022-09-15T10:41:29.763Z,24.94
2022-09-15T10:45:22.840Z,23.13
2022-09-15T10:48:46.799Z,26.75
2022-09-15T10:52:16.332Z,31.44
2022-09-15T10:55:52.611Z,32.50
2022-09-15T10:59:52.884Z,25.06
2022-09-15T11:03:25.300Z,22.06
2022-09-15T11:06:40.327Z,20.69
2022-09-15T11:09:46.622Z,19.75
2022-09-15T11:13:01.619Z,20.56
2022-09-15T11:16:25.864Z,20.00
2022-09-15T11:19:35.503Z,20.94
2022-09-15T11:22:31.611Z,23.75
2022-09-15T11:25:28.239Z,22.81
2022-09-15T11:28:28.294Z,21.75
2022-09-15T11:31:24.596Z,21.31
2022-09-15T11:34:27.088Z,21.63
2022-09-15T11:37:21.625Z,21.75
2022-09-15T11:40:33.825Z,21.63
2022-09-15T11:43:50.887Z,22.63
2022-09-15T11:47:14.260Z,25.69
2022-09-15T11:50:11.035Z,30.81
2022-09-15T11:53:09.423Z,29.75
2022-09-15T11:56:20.642Z,29.94
2022-09-15T11:59:20.969Z,29.81
2022-09-15T12:02:31.031Z,29.69
2022-09-15T12:06:04.498Z,26.81
2022-09-15T12:09:02.597Z,23.06
2022-09-15T12:12:04.834Z,21.31
2022-09-15T12:14:53.122Z,21.19
2022-09-15T12:18:37.166Z,21.25
2022-09-15T12:21:36.011Z,22.31
2022-09-15T12:24:48.508Z,22.94
2022-09-15T12:27:36.402Z,22.56
2022-09-15T12:30:42.944Z,21.75
2022-09-15T12:33:59.585Z,21.63
2022-09-15T12:36:53.424Z,21.56
2022-09-15T12:39:42.195Z,21.38
2022-09-15T12:42:32.264Z,21.19
2022-09-15T12:45:27.333Z,20.88
2022-09-15T12:48:34.237Z,20.38
2022-09-15T12:51:28.116Z,19.56
2022-09-15T12:54:27.880Z,19.38
2022-09-15T12:57:36.985Z,19.31
2022-09-15T13:00:54.839Z,19.38
2022-09-15T13:07:52.969Z,20.13
2022-09-15T13:11:09.510Z,19.75
2022-09-15T13:14:03.961Z,19.44
2022-09-15T13:17:06.748Z,19.13
2022-09-15T13:19:59.972Z,18.81
2022-09-15T13:22:56.456Z,18.88
2022-09-15T13:25:46.631Z,19.06
2022-09-15T13:28:35.383Z,19.50
2022-09-15T13:31:53.525Z,19.69
2022-09-15T13:35:07.840Z,19.44
2022-09-15T13:38:16.928Z,20.06
2022-09-15T13:41:40.379Z,19.50
2022-09-15T13:44:37.673Z,18.81
2022-09-15T13:47:31.793Z,18.75
2022-09-15T13:50:41.553Z,18.69
2022-09-15T13:53:43.645Z,18.69
2022-09-15T13:56:40.069Z,18.31
2022-09-15T13:59:33.141Z,18.25
2022-09-15T14:02:21.265Z,18.00
2022-09-15T14:05:09.582Z,17.94
2022-09-15T14:08:04.344Z,17.81
2022-09-15T14:10:58.435Z,17.63
2022-09-15T14:13:51.264Z,17.25
2022-09-15T14:16:39.915Z,17.06
2022-09-15T14:19:36.901Z,17.19
2022-09-15T14:25:51.684Z,16.81
2022-09-15T14:29:02.256Z,16.25
2022-09-15T14:32:07.367Z,15.69
2022-09-15T14:34:59.988Z,15.38
2022-09-15T14:38:00.010Z,15.13
2022-09-15T14:40:56.965Z,15.00
2022-09-15T14:43:48.967Z,15.75
2022-09-15T14:46:38.464Z,15.81
2022-09-15T14:49:29.027Z,15.63
2022-09-15T14:52:36.112Z,15.25
2022-09-15T14:55:50.742Z,15.38
2022-09-15T14:58:52.980Z,14.81
2022-09-15T15:02:20.332Z,14.94
2022-09-15T15:05:22.833Z,15.25
2022-09-15T15:08:39.458Z,15.25
2022-09-15T15:11:29.556Z,17.44
2022-09-15T15:14:18.739Z,19.00
2022-09-15T15:17:07.017Z,17.75
2022-09-15T15:20:08.849Z,16.81
2022-09-15T15:23:26.008Z,15.94
2022-09-15T15:26:42.660Z,15.50
2022-09-15T15:29:48.432Z,15.13
2022-09-15T15:32:46.126Z,15.13
2022-09-15T15:35:35.943Z,15.06
2022-09-15T15:38:25.643Z,14.94
2022-09-15T15:41:35.622Z,14.88
2022-09-15T15:44:29.022Z,14.88
2022-09-15T15:47:19.808Z,14.63
2022-09-15T15:50:28.502Z,14.31
2022-09-15T15:53:16.687Z,14.06
2022-09-15T15:56:04.894Z,13.88
2022-09-15T15:58:53.157Z,13.75
2022-09-15T16:01:42.110Z,13.69
2022-09-15T16:04:35.126Z,13.56
2022-09-15T16:07:46.729Z,13.50
2022-09-15T16:10:51.096Z,13.44
2022-09-15T16:13:39.685Z,13.44
2022-09-15T16:16:28.160Z,13.56
2022-09-15T16:19:16.649Z,13.50
2022-09-15T16:22:05.498Z,13.50
2022-09-15T16:24:55.943Z,13.31
2022-09-15T16:27:43.878Z,13.13
2022-09-15T16:30:33.277Z,12.94
2022-09-15T16:33:21.167Z,12.75
2022-09-15T16:36:16.212Z,12.63
2022-09-15T16:39:04.267Z,12.56
2022-09-15T16:41:52.959Z,12.63
2022-09-15T16:44:41.049Z,12.75
2022-09-15T16:47:28.843Z,12.81
2022-09-15T16:50:31.149Z,12.81
2022-09-15T16:53:31.123Z,12.75
2022-09-15T16:56:19.569Z,12.56
2022-09-15T16:59:26.850Z,12.56
2022-09-15T17:02:16.344Z,12.44
2022-09-15T17:05:25.123Z,12.50
2022-09-15T17:08:14.891Z,12.56
2022-09-15T17:11:05.265Z,12.63
2022-09-15T17:13:53.455Z,12.44
2022-09-15T17:16:41.371Z,12.31
2022-09-15T17:19:29.266Z,12.19
2022-09-15T17:22:17.114Z,12.06
2022-09-15T17:25:37.445Z,12.06
2022-09-15T17:28:36.710Z,12.00
2022-09-15T17:31:25.286Z,11.81
2022-09-15T17:34:14.568Z,11.63
2022-09-15T17:37:02.293Z,11.44
2022-09-15T17:39:58.697Z,11.38
2022-09-15T17:43:01.891Z,11.25
2022-09-15T17:46:07.969Z,11.13
2022-09-15T17:48:55.956Z,11.00
2022-09-15T17:51:43.988Z,10.94
2022-09-15T17:54:32.352Z,10.88
2022-09-15T17:57:32.120Z,10.75
2022-09-15T18:01:08.835Z,10.81
2022-09-15T18:04:13.382Z,10.81
2022-09-15T18:07:01.301Z,10.75
2022-09-15T18:09:51.672Z,10.75
2022-09-15T18:12:43.979Z,10.75
2022-09-15T18:15:35.610Z,10.75
2022-09-15T18:18:32.237Z,10.75
2022-09-15T18:21:29.869Z,10.81
2022-09-15T18:24:18.030Z,10.81
2022-09-15T18:27:06.494Z,10.81
2022-09-15T18:29:56.965Z,10.69
2022-09-15T18:32:45.507Z,10.75
2022-09-15T18:35:35.229Z,10.75
2022-09-15T18:38:23.850Z,10.75
2022-09-15T18:41:11.985Z,10.81
2022-09-15T18:43:59.573Z,10.75
2022-09-15T18:46:47.501Z,10.75
2022-09-15T18:49:35.562Z,10.69
2022-09-15T18:52:23.708Z,10.69
2022-09-15T18:55:22.055Z,10.69
2022-09-15T18:58:14.306Z,10.69
2022-09-15T19:01:06.100Z,10.69
2022-09-15T19:03:54.409Z,10.69
2022-09-15T19:06:42.783Z,10.69
2022-09-15T19:09:31.702Z,10.63
2022-09-15T19:15:11.532Z,10.69
2022-09-15T19:21:21.872Z,10.69
2022-09-15T19:24:43.134Z,10.81
2022-09-15T19:27:31.087Z,10.81
2022-09-15T19:30:19.245Z,10.81
2022-09-15T19:33:11.293Z,10.75
2022-09-15T19:36:26.927Z,10.63
2022-09-15T19:39:15.401Z,10.56
2022-09-15T19:42:05.598Z,10.63
2022-09-15T19:44:54.447Z,10.81
2022-09-15T19:47:42.557Z,11.06
2022-09-15T19:50:30.494Z,11.31
2022-09-15T19:53:18.788Z,11.44
2022-09-15T19:56:08.035Z,11.50
2022-09-15T19:58:58.458Z,11.38
2022-09-15T20:01:46.849Z,11.25
2022-09-15T20:04:53.263Z,11.19
2022-09-15T20:07:41.223Z,11.19
2022-09-15T20:10:31.736Z,11.13
2022-09-15T20:13:20.580Z,11.13
2022-09-15T20:16:08.584Z,11.06
2022-09-15T20:18:57.022Z,11.00
2022-09-15T20:21:51.574Z,10.88
2022-09-15T20:24:43.117Z,10.81
2022-09-15T20:27:32.609Z,10.81
2022-09-15T20:30:21.523Z,10.69
2022-09-15T20:33:12.538Z,10.50
2022-09-15T20:36:07.703Z,10.38
2022-09-15T20:38:56.763Z,10.31
2022-09-15T20:41:55.793Z,10.31
2022-09-15T20:44:47.247Z,10.25
2022-09-15T20:47:35.323Z,10.19
2022-09-15T20:50:23.180Z,10.13
2022-09-15T20:53:11.232Z,10.00
2022-09-15T20:56:02.721Z,10.00
2022-09-15T20:58:51.198Z,10.00
2022-09-15T21:01:40.149Z,9.94
2022-09-15T21:04:28.368Z,9.94
2022-09-15T21:07:16.972Z,9.94
2022-09-15T21:10:05.429Z,10.00
2022-09-15T21:12:54.339Z,10.13
2022-09-15T21:15:42.844Z,10.19
2022-09-15T21:18:36.906Z,10.19
2022-09-15T21:21:31.283Z,10.13
2022-09-15T21:24:22.620Z,10.13
2022-09-15T21:27:27.026Z,10.06
2022-09-15T21:30:15.135Z,10.00
2022-09-15T21:33:03.056Z,10.00
2022-09-15T21:35:51.148Z,9.88
2022-09-15T21:38:44.015Z,9.81
2022-09-15T21:41:31.776Z,9.75
2022-09-15T21:44:19.709Z,9.69
2022-09-15T21:47:07.211Z,9.69
2022-09-15T21:49:55.330Z,9.63
2022-09-15T21:52:43.522Z,9.56
2022-09-15T21:55:31.307Z,9.56
2022-09-15T21:58:21.524Z,9.56
2022-09-15T22:01:35.381Z,9.50
2022-09-15T22:04:23.380Z,9.44
2022-09-15T22:07:11.333Z,9.56
2022-09-15T22:09:59.305Z,9.81
2022-09-15T22:12:47.160Z,10.06
2022-09-15T22:15:35.562Z,10.25
2022-09-15T22:18:23.127Z,10.31
2022-09-15T22:21:24.261Z,10.38
2022-09-15T22:24:14.150Z,10.31
2022-09-15T22:27:01.862Z,10.25
2022-09-15T22:29:49.784Z,10.13
2022-09-15T22:32:37.941Z,10.06
2022-09-15T22:35:26.026Z,10.00
2022-09-15T22:38:13.832Z,9.94
2022-09-15T22:41:09.235Z,9.88
2022-09-15T22:43:57.724Z,9.88
2022-09-15T22:46:46.408Z,9.88
2022-09-15T22:49:34.372Z,9.88
2022-09-15T22:52:22.222Z,9.88
2022-09-15T22:55:10.157Z,10.13
2022-09-15T22:57:58.531Z,10.31
2022-09-15T23:00:46.501Z,10.44
2022-09-15T23:03:34.208Z,10.44
2022-09-15T23:06:23.673Z,10.44
2022-09-15T23:09:11.606Z,10.44
2022-09-15T23:11:59.685Z,10.44
2022-09-15T23:14:47.639Z,10.31
2022-09-15T23:17:35.580Z,10.25
2022-09-15T23:20:23.426Z,10.19
2022-09-15T23:23:11.501Z,10.13
2022-09-15T23:25:59.322Z,10.06
2022-09-15T23:28:49.364Z,10.00
2022-09-15T23:31:36.992Z,9.88
2022-09-15T23:34:24.855Z,9.75
2022-09-15T23:37:12.801Z,9.63
2022-09-15T23:40:00.727Z,9.56
2022-09-15T23:42:48.775Z,9.56
2022-09-15T23:45:37.152Z,9.56
2022-09-15T23:48:25.014Z,9.63
2022-09-15T23:51:13.160Z,9.81
2022-09-15T23:54:02.407Z,9.94
2022-09-15T23:56:50.208Z,9.94
2022-09-15T23:59:38.174Z,9.75
